• Join FlightAware (Why Join?)
  • Login
  • US Flag 
05:02AM EDT


 

Airport Tracker/Info


-or-


 

Live Flight TrackerFlight Track Log ✈ DAL1990 ✈ 23-Apr-2012 ✈ KSAV - KATL

Flight Track Log - Related Links

Times and Time Zones

All times are in EDT time to prevent confusion due to time zone crossing. See the DAL1990 flight status page for this flight to view local times or setup timezone preferences in your user account.

Time Position Orientation Groundspeed Altitude Reporting Facility
EDT Latitude Longitude Course Direction KTS MPH feet Rate Location/Type
12:19PM 32.1653 -81.3267 302° West 206 237 4,100  Level Jacksonville Center
12:20PM 32.1994 -81.3925 302° West 229 264 6,100 2,220 Climbing Jacksonville Center
12:21PM 32.2336 -81.4583 291° West 235 270 8,600 2,400 Climbing Jacksonville Center
12:22PM 32.2553 -81.5267 278° West 241 277 10,900 1,740 Climbing Jacksonville Center
12:23PM 32.2667 -81.6272 276° West 269 310 12,100 3,540 Climbing Jacksonville Center
12:25PM 32.2842 -81.8325 270° West 308 354 22,000 1,980 Climbing Atlanta Center
12:26PM 32.2839 -81.9383 281° West 320 368 18,300 -900 Descending Atlanta Center
12:27PM 32.3003 -82.0411 288° West 320 368 20,200 1,620 Climbing Atlanta Center
12:28PM 32.3289 -82.1436 285° West 325 374 21,600 900 Climbing Atlanta Center
12:29PM 32.3536 -82.2539 286° West 338 389 22,000 180 Climbing Atlanta Center
12:30PM 32.3825 -82.3736 290° West 358 412 22,000  Level Atlanta Center
12:31PM 32.4172 -82.4886 296° West 363 418 22,000  Level Atlanta Center
12:32PM 32.4667 -82.6108 305° West 374 430 22,000  Level Atlanta Center
12:33PM 32.5264 -82.7108 299° West 374 430 22,000  Level Atlanta Center
12:34PM 32.5775 -82.8211 302° West 374 430 22,000  Level Atlanta Center
12:35PM 32.6308 -82.9239 304° West 374 430 22,000  Level Atlanta Center
12:36PM 32.6881 -83.0244 314° West 379 436 22,000  Level Atlanta Center
12:37PM 32.7639 -83.1175 312° West 379 436 22,000  Level Atlanta Center
12:38PM 32.8292 -83.2033 308° West 373 429 22,000 -180 Level Atlanta Center
12:39PM 32.8967 -83.3067 311° West 379 436 21,700 -1,200 Descending Atlanta Center
12:40PM 32.9661 -83.4025 312° West 379 436 19,600 -2,280 Descending Atlanta Center
12:41PM 33.0269 -83.4839 303° West 358 412 17,200 -2,220 Descending Atlanta Center
12:42PM 33.0711 -83.5653 313° West 336 387 15,200 -2,100 Descending Atlanta Center
12:43PM 33.1339 -83.6469 304° West 326 375 13,100 -1,620 Descending Atlanta Center
12:44PM 33.1833 -83.7333 306° West 301 346 12,100 -600 Descending Atlanta TRACON
12:45PM 33.2333 -83.8167 301° West 298 343 12,000 -480 Descending Atlanta TRACON
12:46PM 33.2667 -83.8833 301° West 258 297 11,200 -1,320 Descending Atlanta TRACON
12:47PM 33.3000 -83.9500 312° West 256 295 9,600 -1,500 Descending Atlanta TRACON
12:48PM 33.3500 -84.0167 331° Northwest 243 280 8,400 -900 Descending Atlanta TRACON
12:49PM 33.4000 -84.0500 331° Northwest 236 272 7,900 -1,260 Descending Atlanta TRACON
12:50PM 33.4500 -84.0833 328° Northwest 235 270 5,900 -1,740 Descending Atlanta TRACON
12:51PM 33.5167 -84.1333 320° Northwest 237 273 4,500 -1,200 Descending Atlanta TRACON
12:52PM 33.5500 -84.1667 312° West 222 255 3,700 -600 Descending Atlanta TRACON
12:53PM 33.6000 -84.2333 292° West 220 253 3,400 -240 Descending Atlanta TRACON
12:54PM 33.6167 -84.2833 270° West 168 193 3,300 -600 Descending Atlanta TRACON
12:55PM 33.6167 -84.3333 270° West 172 198 2,300 -960 Descending Atlanta TRACON
12:56PM 33.6167 -84.3833 270° West 137 158 1,500 -840 Descending Atlanta TRACON